createdAt,value
2022-08-08T00:00:55.025Z,19.85
2022-08-08T00:01:12.408Z,19.83
2022-08-08T00:02:31.047Z,19.80
2022-08-08T00:03:47.316Z,19.80
2022-08-08T00:04:56.883Z,19.79
2022-08-08T00:06:06.355Z,19.78
2022-08-08T00:07:17.293Z,19.77
2022-08-08T00:08:30.127Z,19.76
2022-08-08T00:09:43.739Z,19.74
2022-08-08T00:10:54.216Z,19.73
2022-08-08T00:12:09.403Z,19.72
2022-08-08T00:14:15.074Z,19.71
2022-08-08T00:15:00.287Z,19.69
2022-08-08T00:16:08.584Z,19.68
2022-08-08T00:17:23.429Z,19.67
2022-08-08T00:18:34.452Z,19.66
2022-08-08T00:19:51.425Z,19.64
2022-08-08T00:20:57.441Z,19.64
2022-08-08T00:22:05.623Z,19.62
2022-08-08T00:23:17.563Z,19.61
2022-08-08T00:24:29.933Z,19.60
2022-08-08T00:25:46.473Z,19.59
2022-08-08T00:26:57.666Z,19.57
2022-08-08T00:28:03.597Z,19.54
2022-08-08T00:29:14.954Z,19.51
2022-08-08T00:30:19.237Z,19.49
2022-08-08T00:32:29.128Z,19.48
2022-08-08T00:33:02.581Z,19.46
2022-08-08T00:34:47.301Z,19.46
2022-08-08T00:35:58.331Z,19.43
2022-08-08T00:37:45.028Z,19.40
2022-08-08T00:38:51.658Z,19.39
2022-08-08T00:41:07.670Z,19.36
2022-08-08T00:42:36.596Z,19.36
2022-08-08T00:44:00.716Z,19.33
2022-08-08T00:45:40.627Z,19.31
2022-08-08T00:47:23.006Z,19.31
2022-08-08T00:49:01.169Z,19.27
2022-08-08T00:50:48.162Z,19.22
2022-08-08T00:52:20.132Z,19.19
2022-08-08T00:53:43.540Z,19.18
2022-08-08T00:55:22.238Z,19.17
2022-08-08T00:57:23.395Z,19.16
2022-08-08T00:58:54.375Z,19.14
2022-08-08T01:00:08.816Z,19.10
2022-08-08T01:01:38.396Z,19.11
2022-08-08T01:04:01.352Z,19.08
2022-08-08T01:05:03.891Z,19.07
2022-08-08T01:06:27.992Z,19.04
2022-08-08T01:08:11.989Z,19.02
2022-08-08T01:09:55.697Z,19.01
2022-08-08T01:11:41.580Z,18.98
2022-08-08T01:13:44.067Z,18.95
2022-08-08T01:15:43.385Z,18.95
2022-08-08T01:17:34.908Z,18.95
2022-08-08T01:19:25.372Z,18.94
2022-08-08T01:20:57.467Z,18.94
2022-08-08T01:22:35.805Z,18.93
2022-08-08T01:24:13.551Z,18.92
2022-08-08T01:25:54.110Z,18.89
2022-08-08T01:27:16.206Z,18.88
2022-08-08T01:28:45.241Z,18.88
2022-08-08T01:30:25.210Z,18.86
2022-08-08T01:32:13.877Z,18.84
2022-08-08T01:34:00.694Z,18.82
2022-08-08T01:35:30.732Z,18.81
2022-08-08T01:37:17.299Z,18.79
2022-08-08T01:38:59.575Z,18.78
2022-08-08T01:40:14.804Z,18.77
2022-08-08T01:41:34.415Z,18.76
2022-08-08T01:42:49.908Z,18.76
2022-08-08T01:44:03.965Z,18.73
2022-08-08T01:45:19.155Z,18.74
2022-08-08T01:46:41.019Z,18.73
2022-08-08T01:48:15.404Z,18.71
2022-08-08T01:49:37.726Z,18.68
2022-08-08T01:51:00.300Z,18.67
2022-08-08T01:52:50.077Z,18.66
2022-08-08T01:55:15.195Z,18.64
2022-08-08T01:56:27.682Z,18.64
2022-08-08T01:56:53.735Z,18.62
2022-08-08T01:58:38.549Z,18.61
2022-08-08T02:00:01.698Z,18.57
2022-08-08T02:01:17.805Z,18.54
2022-08-08T02:02:41.612Z,18.53
2022-08-08T02:03:58.486Z,18.48
2022-08-08T02:05:23.263Z,18.47
2022-08-08T02:06:43.647Z,18.46
2022-08-08T02:07:58.917Z,18.44
2022-08-08T02:09:17.412Z,18.43
2022-08-08T02:10:45.116Z,18.43
2022-08-08T02:12:00.225Z,18.41
2022-08-08T02:13:54.872Z,18.42
2022-08-08T02:14:49.778Z,18.42
2022-08-08T02:16:20.538Z,18.40
2022-08-08T02:17:36.602Z,18.37
2022-08-08T02:18:58.860Z,18.35
2022-08-08T02:20:16.211Z,18.33
2022-08-08T02:22:06.036Z,18.30
2022-08-08T02:23:16.369Z,18.28
2022-08-08T02:24:22.893Z,18.29
2022-08-08T02:25:47.295Z,18.28
2022-08-08T02:26:58.158Z,18.28
2022-08-08T02:28:06.413Z,18.28
2022-08-08T02:29:41.425Z,18.25
2022-08-08T02:31:43.463Z,18.25
2022-08-08T02:32:53.609Z,18.23
2022-08-08T02:34:08.438Z,18.21
2022-08-08T02:36:04.067Z,18.19
2022-08-08T02:37:52.014Z,18.18
2022-08-08T02:39:01.172Z,18.14
2022-08-08T02:40:09.663Z,18.14
2022-08-08T02:41:58.796Z,18.10
2022-08-08T02:44:42.373Z,18.09
2022-08-08T02:45:54.235Z,18.08
2022-08-08T02:47:37.838Z,18.07
2022-08-08T02:49:06.782Z,18.04
2022-08-08T02:50:47.311Z,18.05
2022-08-08T02:52:35.297Z,18.06
2022-08-08T02:53:57.772Z,18.06
2022-08-08T02:55:36.566Z,18.04
2022-08-08T02:57:02.258Z,18.02
2022-08-08T02:58:45.040Z,18.00
2022-08-08T03:00:31.633Z,17.99
2022-08-08T03:02:20.014Z,17.98
2022-08-08T03:05:03.849Z,17.96
2022-08-08T03:06:24.297Z,17.94
2022-08-08T03:08:06.105Z,17.91
2022-08-08T03:10:00.620Z,17.90
2022-08-08T03:12:03.072Z,17.87
2022-08-08T03:15:57.496Z,17.86
2022-08-08T03:15:57.497Z,17.85
2022-08-08T03:16:53.953Z,17.84
2022-08-08T03:18:05.141Z,17.83
2022-08-08T03:19:24.586Z,17.82
2022-08-08T03:20:26.430Z,17.81
2022-08-08T03:21:54.769Z,17.80
2022-08-08T03:22:57.211Z,17.79
2022-08-08T03:24:02.011Z,17.77
2022-08-08T03:25:09.301Z,17.78
2022-08-08T03:26:27.288Z,17.75
2022-08-08T03:27:41.711Z,17.74
2022-08-08T03:28:51.467Z,17.72
2022-08-08T03:30:01.895Z,17.71
2022-08-08T03:31:25.830Z,17.70
2022-08-08T03:32:47.590Z,17.68
2022-08-08T03:34:01.245Z,17.66
2022-08-08T03:35:05.143Z,17.67
2022-08-08T03:36:19.777Z,17.65
2022-08-08T03:38:52.916Z,17.65
2022-08-08T03:39:07.445Z,17.65
2022-08-08T03:40:29.929Z,17.63
2022-08-08T03:42:13.378Z,17.63
2022-08-08T03:42:56.550Z,17.63
2022-08-08T03:43:59.948Z,17.60
2022-08-08T03:46:07.443Z,17.60
2022-08-08T03:46:25.506Z,17.59
2022-08-08T03:47:45.278Z,17.59
2022-08-08T03:49:30.873Z,17.57
2022-08-08T03:50:20.069Z,17.57
2022-08-08T03:51:50.588Z,17.56
2022-08-08T03:52:49.768Z,17.57
2022-08-08T03:53:54.948Z,17.58
2022-08-08T03:55:09.741Z,17.57
2022-08-08T03:56:31.357Z,17.55
2022-08-08T03:58:30.878Z,17.51
2022-08-08T03:58:58.819Z,17.49
2022-08-08T04:00:07.817Z,17.47
2022-08-08T04:01:25.837Z,17.47
2022-08-08T04:02:36.806Z,17.46
2022-08-08T04:03:58.354Z,17.45
2022-08-08T04:05:04.059Z,17.43
2022-08-08T04:06:12.898Z,17.43
2022-08-08T04:07:16.390Z,17.41
2022-08-08T04:08:33.664Z,17.39
2022-08-08T04:10:00.052Z,17.40
2022-08-08T04:11:11.456Z,17.38
2022-08-08T04:12:19.757Z,17.37
2022-08-08T04:13:22.501Z,17.36
2022-08-08T04:14:33.239Z,17.33
2022-08-08T04:15:38.580Z,17.32
2022-08-08T04:16:41.439Z,17.34
2022-08-08T04:17:58.417Z,17.33
2022-08-08T04:19:00.960Z,17.32
2022-08-08T04:20:05.725Z,17.31
2022-08-08T04:21:09.807Z,17.33
2022-08-08T04:22:12.735Z,17.33
2022-08-08T04:23:18.363Z,17.35
2022-08-08T04:24:28.507Z,17.35
2022-08-08T04:25:32.735Z,17.35
2022-08-08T04:26:56.852Z,17.37
2022-08-08T04:28:34.113Z,17.35
2022-08-08T04:29:19.995Z,17.32
2022-08-08T04:30:23.156Z,17.30
2022-08-08T04:31:30.779Z,17.30
2022-08-08T04:32:50.563Z,17.30
2022-08-08T04:33:52.491Z,17.32
2022-08-08T04:34:58.303Z,17.30
2022-08-08T04:36:00.353Z,17.32
2022-08-08T04:37:03.760Z,17.31
2022-08-08T04:38:06.933Z,17.30
2022-08-08T04:39:47.767Z,17.30
2022-08-08T04:40:35.429Z,17.30
2022-08-08T04:41:37.178Z,17.31
2022-08-08T04:42:55.827Z,17.31
2022-08-08T04:44:00.069Z,17.33
2022-08-08T04:45:02.148Z,17.33
2022-08-08T04:46:05.680Z,17.34
2022-08-08T04:47:11.828Z,17.36
2022-08-08T04:48:15.266Z,17.36
2022-08-08T04:49:16.904Z,17.37
2022-08-08T04:50:25.355Z,17.37
2022-08-08T04:51:57.399Z,17.37
2022-08-08T04:52:58.893Z,17.39
2022-08-08T04:54:39.010Z,17.40
2022-08-08T04:55:37.701Z,17.38
2022-08-08T04:56:52.571Z,17.40
2022-08-08T04:57:54.840Z,17.41
2022-08-08T04:59:01.843Z,17.41
2022-08-08T05:00:07.526Z,17.43
2022-08-08T05:01:13.181Z,17.44
2022-08-08T05:02:16.285Z,17.45
2022-08-08T05:04:09.567Z,17.46
2022-08-08T05:04:46.773Z,17.48
2022-08-08T05:05:53.528Z,17.48
2022-08-08T05:06:55.372Z,17.49
2022-08-08T05:07:58.003Z,17.49
2022-08-08T05:09:02.832Z,17.50
2022-08-08T05:10:12.697Z,17.52
2022-08-08T05:11:22.896Z,17.52
2022-08-08T05:12:28.941Z,17.54
2022-08-08T05:13:31.224Z,17.55
2022-08-08T05:14:34.334Z,17.55
2022-08-08T05:16:55.076Z,17.57
2022-08-08T05:17:00.546Z,17.60
2022-08-08T05:18:02.959Z,17.61
2022-08-08T05:19:05.617Z,17.64
2022-08-08T05:20:28.217Z,17.67
2022-08-08T05:21:30.640Z,17.67
2022-08-08T05:22:46.435Z,17.70
2022-08-08T05:23:50.679Z,17.71
2022-08-08T05:25:07.439Z,17.74
2022-08-08T05:26:09.096Z,17.75
2022-08-08T05:27:16.969Z,17.77
2022-08-08T05:28:48.169Z,17.78
2022-08-08T05:29:43.783Z,17.82
2022-08-08T05:30:47.623Z,17.84
2022-08-08T05:32:04.049Z,17.87
2022-08-08T05:33:08.358Z,17.90
2022-08-08T05:34:17.851Z,17.93
2022-08-08T05:35:24.407Z,17.95
2022-08-08T05:36:28.078Z,17.98
2022-08-08T05:37:51.747Z,18.02
2022-08-08T05:38:58.785Z,18.06
2022-08-08T05:40:04.719Z,18.09
2022-08-08T05:41:08.277Z,18.15
2022-08-08T05:42:11.021Z,18.20
2022-08-08T05:43:39.787Z,18.28
2022-08-08T05:44:49.276Z,18.36
2022-08-08T05:46:02.872Z,18.41
2022-08-08T05:47:07.569Z,18.45
2022-08-08T05:48:10.997Z,18.50
2022-08-08T05:49:18.095Z,18.58
2022-08-08T05:50:21.109Z,18.68
2022-08-08T05:51:22.722Z,18.79
2022-08-08T05:52:35.448Z,18.89
2022-08-08T05:54:26.264Z,19.02
2022-08-08T05:55:06.022Z,19.13
2022-08-08T05:56:15.175Z,19.23
2022-08-08T05:57:57.489Z,19.32
2022-08-08T05:58:56.727Z,19.39
2022-08-08T06:00:23.540Z,19.46
2022-08-08T06:01:55.565Z,19.52
2022-08-08T06:03:17.591Z,19.62
2022-08-08T06:04:31.251Z,19.72
2022-08-08T06:05:36.438Z,19.79
2022-08-08T06:06:41.907Z,19.89
2022-08-08T06:07:51.333Z,19.97
2022-08-08T06:09:58.972Z,20.04
2022-08-08T06:10:30.687Z,20.09
2022-08-08T06:11:33.748Z,20.15
2022-08-08T06:12:48.059Z,20.21
2022-08-08T06:13:52.571Z,20.29
2022-08-08T06:14:58.012Z,20.36
2022-08-08T06:16:02.090Z,20.40
2022-08-08T06:17:05.730Z,20.45
2022-08-08T06:18:20.571Z,20.50
2022-08-08T06:19:25.904Z,20.52
2022-08-08T06:20:29.356Z,20.54
2022-08-08T06:21:51.440Z,20.58
2022-08-08T06:22:56.290Z,20.59
2022-08-08T06:24:04.625Z,20.62
2022-08-08T06:25:08.611Z,20.63
2022-08-08T06:26:38.750Z,20.64
2022-08-08T06:27:47.881Z,20.66
2022-08-08T06:28:54.763Z,20.69
2022-08-08T06:30:09.263Z,20.73
2022-08-08T06:31:52.534Z,20.74
2022-08-08T06:32:52.674Z,20.75
2022-08-08T06:34:27.733Z,20.78
2022-08-08T06:36:07.350Z,20.82
2022-08-08T06:36:53.547Z,20.87
2022-08-08T06:37:59.995Z,20.96
2022-08-08T06:39:05.375Z,21.02
2022-08-08T06:40:16.682Z,21.06
2022-08-08T06:41:20.732Z,21.11
2022-08-08T06:42:24.155Z,21.17
2022-08-08T06:43:34.891Z,21.22
2022-08-08T06:44:42.536Z,21.25
2022-08-08T06:45:45.606Z,21.26
2022-08-08T06:46:52.243Z,21.30
2022-08-08T06:48:01.515Z,21.35
2022-08-08T06:49:05.950Z,21.42
2022-08-08T06:50:17.707Z,21.46
2022-08-08T06:51:48.857Z,21.50
2022-08-08T06:52:55.328Z,21.52
2022-08-08T06:54:01.511Z,21.51
2022-08-08T06:55:05.603Z,21.53
2022-08-08T06:56:09.689Z,21.53
2022-08-08T06:57:11.604Z,21.50
2022-08-08T06:58:18.711Z,21.43
2022-08-08T06:59:21.256Z,21.37
2022-08-08T07:00:32.619Z,21.33
2022-08-08T07:02:17.192Z,21.26
2022-08-08T07:03:08.696Z,21.19
2022-08-08T07:04:37.675Z,21.14
2022-08-08T07:06:01.984Z,21.13
2022-08-08T07:07:10.344Z,21.12
2022-08-08T07:08:27.922Z,21.15
2022-08-08T07:09:41.782Z,21.18
2022-08-08T07:11:03.143Z,21.22
2022-08-08T07:12:09.262Z,21.24
2022-08-08T07:13:17.655Z,21.25
2022-08-08T07:14:27.563Z,21.24
2022-08-08T07:16:04.599Z,21.22
2022-08-08T07:17:09.300Z,21.21
2022-08-08T07:18:36.191Z,21.23
2022-08-08T07:19:41.937Z,21.26
2022-08-08T07:20:50.338Z,21.29
2022-08-08T07:22:04.884Z,21.33
2022-08-08T07:23:15.710Z,21.37
2022-08-08T07:24:29.649Z,21.39
2022-08-08T07:25:35.186Z,21.43
2022-08-08T07:26:41.180Z,21.46
2022-08-08T07:28:02.514Z,21.48
2022-08-08T07:29:20.311Z,21.48
2022-08-08T07:30:34.200Z,21.46
2022-08-08T07:31:37.659Z,21.44
2022-08-08T07:32:41.023Z,21.44
2022-08-08T07:33:59.227Z,21.42
2022-08-08T07:35:06.472Z,21.41
2022-08-08T07:36:12.185Z,21.42
2022-08-08T07:37:18.428Z,21.46
2022-08-08T07:38:25.563Z,21.49
2022-08-08T07:39:45.818Z,21.53
2022-08-08T07:40:58.814Z,21.53
2022-08-08T07:42:04.183Z,21.56
2022-08-08T07:43:09.173Z,21.61
2022-08-08T07:44:37.011Z,21.66
2022-08-08T07:45:51.468Z,21.68
2022-08-08T07:46:59.086Z,21.71
2022-08-08T07:48:02.601Z,21.77
2022-08-08T07:49:09.473Z,21.82
2022-08-08T07:50:12.204Z,21.89
2022-08-08T07:51:23.909Z,21.93
2022-08-08T07:52:45.518Z,21.94
2022-08-08T07:54:02.401Z,21.96
2022-08-08T07:55:11.852Z,21.95
2022-08-08T07:56:16.389Z,21.94
2022-08-08T07:57:48.429Z,21.91
2022-08-08T07:58:51.666Z,21.92
2022-08-08T08:00:03.007Z,21.95
2022-08-08T08:01:07.442Z,21.96
2022-08-08T08:02:34.280Z,21.97
2022-08-08T08:03:44.513Z,21.94
2022-08-08T08:04:52.292Z,21.95
2022-08-08T08:05:56.546Z,21.99
2022-08-08T08:06:59.619Z,22.02
2022-08-08T08:08:06.017Z,22.05
2022-08-08T08:09:14.474Z,22.11
2022-08-08T08:10:30.583Z,22.13
2022-08-08T08:11:51.455Z,22.16
2022-08-08T08:13:01.724Z,22.19
2022-08-08T08:14:08.543Z,22.21
2022-08-08T08:15:16.129Z,22.22
2022-08-08T08:16:23.284Z,22.25
2022-08-08T08:17:25.983Z,22.26
2022-08-08T08:18:55.736Z,22.25
2022-08-08T08:20:04.519Z,22.23
2022-08-08T08:21:18.555Z,22.25
2022-08-08T08:22:25.532Z,22.25
2022-08-08T08:23:41.030Z,22.27
2022-08-08T08:24:46.724Z,22.28
2022-08-08T08:25:55.178Z,22.30
2022-08-08T08:26:56.969Z,22.37
2022-08-08T08:27:59.752Z,22.40
2022-08-08T08:29:06.220Z,22.46
2022-08-08T08:30:10.435Z,22.50
2022-08-08T08:31:12.190Z,22.54
2022-08-08T08:32:31.900Z,22.56
2022-08-08T08:33:37.753Z,22.59
2022-08-08T08:34:43.474Z,22.63
2022-08-08T08:36:19.012Z,22.67
2022-08-08T08:37:16.429Z,22.70
2022-08-08T08:38:23.739Z,22.72
2022-08-08T08:39:59.933Z,22.73
2022-08-08T08:40:51.430Z,22.73
2022-08-08T08:41:54.825Z,22.75
2022-08-08T08:43:00.594Z,22.76
2022-08-08T08:44:13.703Z,22.78
2022-08-08T08:45:23.548Z,22.79
2022-08-08T08:46:28.184Z,22.81
2022-08-08T08:47:33.829Z,22.81
2022-08-08T08:48:50.277Z,22.83
2022-08-08T08:49:51.975Z,22.81
2022-08-08T08:50:56.341Z,22.81
2022-08-08T08:52:03.392Z,22.78
2022-08-08T08:53:26.842Z,22.76
2022-08-08T08:54:34.603Z,22.75
2022-08-08T08:55:39.439Z,22.79
2022-08-08T08:56:42.783Z,22.82
2022-08-08T08:57:52.869Z,22.84
2022-08-08T08:58:56.448Z,22.89
2022-08-08T09:00:05.659Z,22.92
2022-08-08T09:01:13.145Z,22.95
2022-08-08T09:02:21.442Z,22.97
2022-08-08T09:03:36.845Z,22.99
2022-08-08T09:04:50.246Z,22.98
2022-08-08T09:05:56.291Z,22.98
2022-08-08T09:07:00.246Z,23.00
2022-08-08T09:08:13.085Z,23.02
2022-08-08T09:09:40.145Z,23.04
2022-08-08T09:10:48.639Z,23.06
2022-08-08T09:12:02.365Z,23.11
2022-08-08T09:13:11.504Z,23.13
2022-08-08T09:14:14.978Z,23.17
2022-08-08T09:15:18.632Z,23.19
2022-08-08T09:16:39.381Z,23.19
2022-08-08T09:17:55.203Z,23.19
2022-08-08T09:18:57.924Z,23.19
2022-08-08T09:21:58.980Z,23.19
2022-08-08T09:22:01.007Z,23.19
2022-08-08T09:22:48.380Z,23.23
2022-08-08T09:23:51.312Z,23.26
2022-08-08T09:24:58.446Z,23.30
2022-08-08T09:26:08.968Z,23.34
2022-08-08T09:27:20.371Z,23.40
2022-08-08T09:28:35.582Z,23.47
2022-08-08T09:29:52.723Z,23.52
2022-08-08T09:31:03.844Z,23.52
2022-08-08T09:32:19.451Z,23.49
2022-08-08T09:34:14.957Z,23.49
2022-08-08T09:34:51.616Z,23.47
2022-08-08T09:35:54.262Z,23.47
2022-08-08T09:37:46.232Z,23.47
2022-08-08T09:38:52.635Z,23.46
2022-08-08T09:40:02.506Z,23.46
2022-08-08T09:41:07.375Z,23.47
2022-08-08T09:42:22.154Z,23.51
2022-08-08T09:43:40.796Z,23.53
2022-08-08T09:45:08.232Z,23.49
2022-08-08T09:46:25.639Z,23.47
2022-08-08T09:48:11.365Z,23.44
2022-08-08T09:50:27.030Z,23.48
2022-08-08T09:51:41.510Z,23.51
2022-08-08T09:53:02.139Z,23.54
2022-08-08T09:54:19.748Z,23.55
2022-08-08T09:56:03.173Z,23.58
2022-08-08T09:57:03.648Z,23.60
2022-08-08T09:58:07.947Z,23.62
2022-08-08T09:59:50.345Z,23.63
2022-08-08T10:00:49.631Z,23.62
2022-08-08T10:01:59.214Z,23.63
2022-08-08T10:03:06.773Z,23.64
2022-08-08T10:04:35.580Z,23.66
2022-08-08T10:05:39.764Z,23.64
2022-08-08T10:06:45.225Z,23.66
2022-08-08T10:08:00.059Z,23.65
2022-08-08T10:09:02.559Z,23.66
2022-08-08T10:10:07.170Z,23.68
2022-08-08T10:12:22.387Z,23.70
2022-08-08T10:12:54.231Z,23.72
2022-08-08T10:14:07.331Z,23.72
2022-08-08T10:15:39.054Z,23.74
2022-08-08T10:16:42.567Z,23.75
2022-08-08T10:18:05.782Z,23.78
2022-08-08T10:19:11.442Z,23.76
2022-08-08T10:20:17.147Z,23.78
2022-08-08T10:21:26.050Z,23.82
2022-08-08T10:22:32.817Z,23.84
2022-08-08T10:23:47.124Z,23.85
2022-08-08T10:25:00.092Z,23.88
2022-08-08T10:26:25.564Z,23.92
2022-08-08T10:27:41.117Z,23.93
2022-08-08T10:28:55.143Z,23.95
2022-08-08T10:30:00.667Z,23.98
2022-08-08T10:31:46.452Z,23.96
2022-08-08T10:32:52.441Z,23.92
2022-08-08T10:34:19.207Z,23.95
2022-08-08T10:36:08.341Z,23.95
2022-08-08T10:36:49.387Z,23.95
2022-08-08T10:37:55.717Z,23.98
2022-08-08T10:39:03.829Z,24.01
2022-08-08T10:40:16.220Z,24.01
2022-08-08T10:41:24.297Z,24.01
2022-08-08T10:42:43.637Z,24.01
2022-08-08T10:43:50.797Z,24.02
2022-08-08T10:45:01.465Z,24.01
2022-08-08T10:46:04.101Z,24.02
2022-08-08T10:47:25.654Z,24.03
2022-08-08T10:48:38.754Z,24.06
2022-08-08T10:50:00.252Z,24.09
2022-08-08T10:51:12.660Z,24.13
2022-08-08T10:52:28.129Z,24.15
2022-08-08T10:53:39.220Z,24.18
2022-08-08T10:55:05.193Z,24.17
2022-08-08T10:56:10.198Z,24.17
2022-08-08T10:57:41.398Z,24.17
2022-08-08T10:58:58.626Z,24.19
2022-08-08T11:00:00.633Z,24.22
2022-08-08T11:01:12.706Z,24.23
2022-08-08T11:02:25.379Z,24.25
2022-08-08T11:03:37.194Z,24.25
2022-08-08T11:04:53.199Z,24.23
2022-08-08T11:06:00.698Z,24.24
2022-08-08T11:07:03.731Z,24.26
2022-08-08T11:08:38.830Z,24.28
2022-08-08T11:09:32.361Z,24.31
2022-08-08T11:10:36.114Z,24.34
2022-08-08T11:12:06.064Z,24.36
2022-08-08T11:13:28.797Z,24.36
2022-08-08T11:14:27.579Z,24.34
2022-08-08T11:15:30.649Z,24.35
2022-08-08T11:16:37.025Z,24.36
2022-08-08T11:18:00.148Z,24.38
2022-08-08T11:19:05.090Z,24.36
2022-08-08T11:20:12.519Z,24.36
2022-08-08T11:21:19.516Z,24.36
2022-08-08T11:22:29.592Z,24.38
2022-08-08T11:23:34.159Z,24.41
2022-08-08T11:24:37.839Z,24.45
2022-08-08T11:25:52.486Z,24.49
2022-08-08T11:26:59.876Z,24.52
2022-08-08T11:28:04.072Z,24.55
2022-08-08T11:29:07.508Z,24.56
2022-08-08T11:30:24.175Z,24.57
2022-08-08T11:31:46.598Z,24.56
2022-08-08T11:32:55.109Z,24.56
2022-08-08T11:34:03.315Z,24.57
2022-08-08T11:35:38.658Z,24.58
2022-08-08T11:36:45.942Z,24.58
2022-08-08T11:38:36.925Z,24.60
2022-08-08T11:39:19.832Z,24.60
2022-08-08T11:40:26.659Z,24.62
2022-08-08T11:41:33.513Z,24.63
2022-08-08T11:42:36.949Z,24.64
2022-08-08T11:43:42.187Z,24.68
2022-08-08T11:44:45.710Z,24.70
2022-08-08T11:46:10.067Z,24.72
2022-08-08T11:47:17.327Z,24.72
2022-08-08T11:48:20.413Z,24.73
2022-08-08T11:49:24.641Z,24.72
2022-08-08T11:50:32.230Z,24.72
2022-08-08T11:51:49.624Z,24.73
2022-08-08T11:52:57.820Z,24.75
2022-08-08T11:54:02.447Z,24.78
2022-08-08T11:55:16.359Z,24.80
2022-08-08T11:56:19.412Z,24.82
2022-08-08T11:57:27.667Z,24.83
2022-08-08T11:58:34.320Z,24.86
2022-08-08T11:59:58.727Z,24.89
2022-08-08T12:01:00.337Z,24.93
2022-08-08T12:02:31.091Z,24.97
2022-08-08T12:03:34.011Z,24.97
2022-08-08T12:04:37.681Z,24.98
2022-08-08T12:05:41.472Z,24.99
2022-08-08T12:06:43.346Z,25.01
2022-08-08T12:07:51.337Z,25.02
2022-08-08T12:08:53.556Z,25.03
2022-08-08T12:09:56.809Z,25.03
2022-08-08T12:11:04.470Z,25.02
2022-08-08T12:12:08.089Z,24.99
2022-08-08T12:13:12.205Z,25.01
2022-08-08T12:14:23.810Z,25.01
2022-08-08T12:15:42.007Z,25.02
2022-08-08T12:16:49.119Z,25.02
2022-08-08T12:17:51.833Z,25.04
2022-08-08T12:18:54.762Z,25.06
2022-08-08T12:19:58.424Z,25.08
2022-08-08T12:21:00.345Z,25.11
2022-08-08T12:22:08.768Z,25.11
2022-08-08T12:23:25.029Z,25.13
2022-08-08T12:24:51.348Z,25.14
2022-08-08T12:25:56.923Z,25.19
2022-08-08T12:26:59.727Z,25.21
2022-08-08T12:28:15.915Z,25.23
2022-08-08T12:29:40.240Z,25.23
2022-08-08T12:30:48.033Z,25.22
2022-08-08T12:32:03.643Z,25.18
2022-08-08T12:33:19.489Z,25.15
2022-08-08T12:34:36.199Z,25.14
2022-08-08T12:35:52.460Z,25.16
2022-08-08T12:37:05.196Z,25.16
2022-08-08T12:38:16.595Z,25.18
2022-08-08T12:40:00.977Z,25.17
2022-08-08T12:40:57.064Z,25.14
2022-08-08T12:42:04.831Z,25.14
2022-08-08T12:43:07.864Z,25.17
2022-08-08T12:44:14.639Z,25.21
2022-08-08T12:45:59.377Z,25.23
2022-08-08T12:47:01.074Z,25.26
2022-08-08T12:48:35.656Z,25.29
2022-08-08T12:49:43.795Z,25.29
2022-08-08T12:50:54.451Z,25.29
2022-08-08T12:52:01.019Z,25.29
2022-08-08T12:53:02.886Z,25.32
2022-08-08T12:54:24.406Z,25.36
2022-08-08T12:55:35.495Z,25.36
2022-08-08T12:56:51.339Z,25.33
2022-08-08T12:57:56.565Z,25.32
2022-08-08T12:59:00.126Z,25.31
2022-08-08T13:00:13.551Z,25.32
2022-08-08T13:01:29.519Z,25.32
2022-08-08T13:02:41.987Z,25.32
2022-08-08T13:03:53.585Z,25.33
2022-08-08T13:04:59.775Z,25.36
2022-08-08T13:06:13.732Z,25.38
2022-08-08T13:07:17.420Z,25.36
2022-08-08T13:08:20.452Z,25.35
2022-08-08T13:09:43.011Z,25.35
2022-08-08T13:10:58.526Z,25.36
2022-08-08T13:12:28.745Z,25.42
2022-08-08T13:13:34.990Z,25.42
2022-08-08T13:14:53.314Z,25.47
2022-08-08T13:16:17.787Z,25.49
2022-08-08T13:18:08.130Z,25.53
2022-08-08T13:18:55.653Z,25.55
2022-08-08T13:20:08.420Z,25.57
2022-08-08T13:21:13.396Z,25.61
2022-08-08T13:22:19.687Z,25.64
2022-08-08T13:23:36.110Z,25.66
2022-08-08T13:24:48.559Z,25.67
2022-08-08T13:25:59.507Z,25.66
2022-08-08T13:27:11.765Z,25.66
2022-08-08T13:28:13.795Z,25.67
2022-08-08T13:29:21.064Z,25.67
2022-08-08T13:30:26.465Z,25.67
2022-08-08T13:31:31.152Z,25.66
2022-08-08T13:32:36.124Z,25.65
2022-08-08T13:33:42.294Z,25.64
2022-08-08T13:34:50.269Z,25.65
2022-08-08T13:35:55.548Z,25.65
2022-08-08T13:37:00.939Z,25.65
2022-08-08T13:38:08.194Z,25.67
2022-08-08T13:39:14.941Z,25.69
2022-08-08T13:40:27.408Z,25.70
2022-08-08T13:41:38.876Z,25.71
2022-08-08T13:42:47.517Z,25.69
2022-08-08T13:43:49.661Z,25.71
2022-08-08T13:44:55.950Z,25.71
2022-08-08T13:46:07.988Z,25.68
2022-08-08T13:47:31.524Z,25.65
2022-08-08T13:48:43.461Z,25.66
2022-08-08T13:50:43.899Z,25.68
2022-08-08T13:51:33.566Z,25.69
2022-08-08T13:52:47.846Z,25.71
2022-08-08T13:53:59.753Z,25.77
2022-08-08T13:55:06.726Z,25.78
2022-08-08T13:56:11.536Z,25.80
2022-08-08T13:57:17.188Z,25.82
2022-08-08T13:58:20.145Z,25.84
2022-08-08T13:59:32.689Z,25.84
2022-08-08T14:00:42.446Z,25.84
2022-08-08T14:01:57.812Z,25.85
2022-08-08T14:03:19.962Z,25.86
2022-08-08T14:04:28.569Z,25.83
2022-08-08T14:05:34.323Z,25.84
2022-08-08T14:06:45.554Z,25.81
2022-08-08T14:07:49.865Z,25.81
2022-08-08T14:08:58.131Z,25.78
2022-08-08T14:10:05.497Z,25.78
2022-08-08T14:11:14.105Z,25.77
2022-08-08T14:12:19.933Z,25.78
2022-08-08T14:13:34.012Z,25.79
2022-08-08T14:14:41.806Z,25.78
2022-08-08T14:15:50.439Z,25.77
2022-08-08T14:16:53.583Z,25.77
2022-08-08T14:18:35.681Z,25.78
2022-08-08T14:19:57.448Z,25.73
2022-08-08T14:21:02.481Z,25.74
2022-08-08T14:22:13.568Z,25.73
2022-08-08T14:24:04.457Z,25.74
2022-08-08T14:24:49.975Z,25.75
2022-08-08T14:25:59.349Z,25.77
2022-08-08T14:27:17.088Z,25.75
2022-08-08T14:28:20.912Z,25.76
2022-08-08T14:29:34.650Z,25.75
2022-08-08T14:30:42.336Z,25.77
2022-08-08T14:32:08.883Z,25.80
2022-08-08T14:33:25.582Z,25.81
2022-08-08T14:34:32.478Z,25.82
2022-08-08T14:35:35.817Z,25.83
2022-08-08T14:36:40.606Z,25.86
2022-08-08T14:38:00.281Z,25.88
2022-08-08T14:39:11.485Z,25.89
2022-08-08T14:40:20.614Z,25.87
2022-08-08T14:41:45.574Z,25.89
2022-08-08T14:42:55.229Z,25.88
2022-08-08T14:44:09.762Z,25.87
2022-08-08T14:45:15.037Z,25.88
2022-08-08T14:46:32.682Z,25.87
2022-08-08T14:47:45.879Z,25.87
2022-08-08T14:48:58.937Z,25.88
2022-08-08T14:50:16.104Z,25.88
2022-08-08T14:51:20.972Z,25.89
2022-08-08T14:52:25.097Z,25.88
2022-08-08T14:53:37.292Z,25.89
2022-08-08T14:54:45.724Z,25.87
2022-08-08T14:55:48.671Z,25.87
2022-08-08T14:57:04.957Z,25.86
2022-08-08T14:58:11.321Z,25.86
2022-08-08T14:59:39.790Z,25.86
2022-08-08T15:00:38.566Z,25.87
2022-08-08T15:01:49.657Z,25.90
2022-08-08T15:02:59.225Z,25.91
2022-08-08T15:04:14.796Z,25.90
2022-08-08T15:05:22.567Z,25.90
2022-08-08T15:06:45.485Z,25.88
2022-08-08T15:07:53.672Z,25.88
2022-08-08T15:09:04.304Z,25.86
2022-08-08T15:10:09.400Z,25.88
2022-08-08T15:11:18.966Z,25.88
2022-08-08T15:12:27.646Z,25.88
2022-08-08T15:14:00.709Z,25.88
2022-08-08T15:15:06.883Z,25.89
2022-08-08T15:16:14.629Z,25.93
2022-08-08T15:17:18.233Z,25.96
2022-08-08T15:18:20.514Z,25.98
2022-08-08T15:19:23.821Z,26.00
2022-08-08T15:20:37.310Z,26.01
2022-08-08T15:21:42.917Z,26.03
2022-08-08T15:22:46.110Z,26.04
2022-08-08T15:23:51.327Z,26.05
2022-08-08T15:24:54.602Z,26.03
2022-08-08T15:25:57.761Z,26.03
2022-08-08T15:27:04.161Z,26.04
2022-08-08T15:28:34.601Z,26.01
2022-08-08T15:29:37.084Z,26.00
2022-08-08T15:30:40.824Z,26.00
2022-08-08T15:32:03.196Z,26.01
2022-08-08T15:33:06.177Z,26.00
2022-08-08T15:34:18.412Z,26.03
2022-08-08T15:35:39.117Z,26.02
2022-08-08T15:36:43.356Z,26.04
2022-08-08T15:37:45.948Z,26.05
2022-08-08T15:38:51.491Z,26.07
2022-08-08T15:39:54.753Z,26.08
2022-08-08T15:40:56.609Z,26.08
2022-08-08T15:42:00.005Z,26.09
2022-08-08T15:43:03.879Z,26.11
2022-08-08T15:44:22.146Z,26.09
2022-08-08T15:45:29.840Z,26.11
2022-08-08T15:46:35.269Z,26.12
2022-08-08T15:47:38.233Z,26.11
2022-08-08T15:48:40.165Z,26.12
2022-08-08T15:49:43.692Z,26.12
2022-08-08T15:51:00.869Z,26.12
2022-08-08T15:52:08.608Z,26.12
2022-08-08T15:53:10.758Z,26.12
2022-08-08T15:54:18.451Z,26.13
2022-08-08T15:55:40.159Z,26.11
2022-08-08T15:56:42.841Z,26.10
2022-08-08T15:57:45.548Z,26.11